sensor_id;sensor_type;location;lat;lon;timestamp;pressure;altitude;pressure_sealevel;temperature;humidity
75717;BME280;64333;50.138;14.332;2024-02-04T00:02:16;98515.06;;;10.37;nan
75717;BME280;64333;50.138;14.332;2024-02-04T00:04:41;98518.63;;;10.33;nan
75717;BME280;64333;50.138;14.332;2024-02-04T00:07:06;98527.03;;;10.16;nan
75717;BME280;64333;50.138;14.332;2024-02-04T00:09:32;98507.31;;;10.37;nan
75717;BME280;64333;50.138;14.332;2024-02-04T00:11:57;98537.25;;;10.19;nan
75717;BME280;64333;50.138;14.332;2024-02-04T00:14:23;98542.34;;;10.42;nan
75717;BME280;64333;50.138;14.332;2024-02-04T00:16:49;98541.34;;;10.46;nan
75717;BME280;64333;50.138;14.332;2024-02-04T00:19:14;98544.72;;;10.04;nan
75717;BME280;64333;50.138;14.332;2024-02-04T00:21:40;98532.78;;;10.24;nan
75717;BME280;64333;50.138;14.332;2024-02-04T00:24:05;98537.81;;;10.49;nan
75717;BME280;64333;50.138;14.332;2024-02-04T00:26:30;98547.66;;;10.39;nan
75717;BME280;64333;50.138;14.332;2024-02-04T00:28:56;98545.19;;;10.36;nan
75717;BME280;64333;50.138;14.332;2024-02-04T00:31:21;98543.81;;;10.28;nan
75717;BME280;64333;50.138;14.332;2024-02-04T00:33:46;98545.75;;;10.44;nan
75717;BME280;64333;50.138;14.332;2024-02-04T00:36:12;98543.31;;;10.40;nan
75717;BME280;64333;50.138;14.332;2024-02-04T00:38:37;98534.63;;;10.21;nan
75717;BME280;64333;50.138;14.332;2024-02-04T00:41:03;98532.63;;;10.27;nan
75717;BME280;64333;50.138;14.332;2024-02-04T00:43:29;98518.72;;;10.31;nan
75717;BME280;64333;50.138;14.332;2024-02-04T00:45:54;98522.53;;;10.21;nan
75717;BME280;64333;50.138;14.332;2024-02-04T00:48:22;98518.13;;;10.46;nan
75717;BME280;64333;50.138;14.332;2024-02-04T00:50:47;98520.88;;;10.42;nan
75717;BME280;64333;50.138;14.332;2024-02-04T00:53:12;98526.53;;;10.30;nan
75717;BME280;64333;50.138;14.332;2024-02-04T00:55:38;98526.47;;;10.31;nan
75717;BME280;64333;50.138;14.332;2024-02-04T00:58:03;98521.66;;;10.44;nan
75717;BME280;64333;50.138;14.332;2024-02-04T01:00:28;98525.91;;;10.45;nan
75717;BME280;64333;50.138;14.332;2024-02-04T01:02:54;98533.84;;;10.62;nan
75717;BME280;64333;50.138;14.332;2024-02-04T01:05:19;98529.41;;;10.44;nan
75717;BME280;64333;50.138;14.332;2024-02-04T01:07:44;98521.88;;;10.59;nan
75717;BME280;64333;50.138;14.332;2024-02-04T01:10:10;98519.06;;;10.44;nan
75717;BME280;64333;50.138;14.332;2024-02-04T01:12:36;98530.97;;;10.48;nan
75717;BME280;64333;50.138;14.332;2024-02-04T01:15:01;98525.56;;;10.32;nan
75717;BME280;64333;50.138;14.332;2024-02-04T01:17:30;98520.88;;;10.42;nan
75717;BME280;64333;50.138;14.332;2024-02-04T01:19:56;98533.00;;;10.40;nan
75717;BME280;64333;50.138;14.332;2024-02-04T01:22:21;98525.72;;;10.49;nan
75717;BME280;64333;50.138;14.332;2024-02-04T01:24:51;98537.56;;;10.33;nan
75717;BME280;64333;50.138;14.332;2024-02-04T01:27:16;98523.88;;;10.31;nan
75717;BME280;64333;50.138;14.332;2024-02-04T01:29:42;98520.50;;;10.29;nan
75717;BME280;64333;50.138;14.332;2024-02-04T01:32:07;98511.84;;;10.52;nan
75717;BME280;64333;50.138;14.332;2024-02-04T01:34:32;98512.84;;;10.28;nan
75717;BME280;64333;50.138;14.332;2024-02-04T01:36:58;98512.88;;;9.82;nan
75717;BME280;64333;50.138;14.332;2024-02-04T01:39:23;98511.22;;;10.25;nan
75717;BME280;64333;50.138;14.332;2024-02-04T01:41:48;98506.16;;;9.55;nan
75717;BME280;64333;50.138;14.332;2024-02-04T01:44:14;98503.44;;;9.58;nan
75717;BME280;64333;50.138;14.332;2024-02-04T01:46:41;98488.31;;;9.72;nan
75717;BME280;64333;50.138;14.332;2024-02-04T01:49:06;98505.63;;;9.68;nan
75717;BME280;64333;50.138;14.332;2024-02-04T01:51:32;98490.97;;;9.92;nan
75717;BME280;64333;50.138;14.332;2024-02-04T01:53:57;98502.53;;;10.05;nan
75717;BME280;64333;50.138;14.332;2024-02-04T01:56:23;98509.44;;;10.69;nan
75717;BME280;64333;50.138;14.332;2024-02-04T01:58:48;98497.69;;;10.19;nan
75717;BME280;64333;50.138;14.332;2024-02-04T02:01:14;98499.69;;;10.34;nan
75717;BME280;64333;50.138;14.332;2024-02-04T02:03:40;98492.28;;;10.46;nan
75717;BME280;64333;50.138;14.332;2024-02-04T02:06:05;98484.91;;;9.93;nan
75717;BME280;64333;50.138;14.332;2024-02-04T02:08:32;98499.88;;;9.83;nan
75717;BME280;64333;50.138;14.332;2024-02-04T02:11:07;98482.91;;;10.01;nan
75717;BME280;64333;50.138;14.332;2024-02-04T02:13:35;98480.72;;;9.90;nan
75717;BME280;64333;50.138;14.332;2024-02-04T02:16:09;98469.59;;;9.88;nan
75717;BME280;64333;50.138;14.332;2024-02-04T02:18:48;98461.50;;;9.76;nan
75717;BME280;64333;50.138;14.332;2024-02-04T02:26:23;98469.06;;;10.25;nan
75717;BME280;64333;50.138;14.332;2024-02-04T02:28:49;98485.69;;;10.18;nan
75717;BME280;64333;50.138;14.332;2024-02-04T02:31:15;98470.34;;;9.92;nan
75717;BME280;64333;50.138;14.332;2024-02-04T02:33:40;98473.19;;;9.63;nan
75717;BME280;64333;50.138;14.332;2024-02-04T02:36:11;98466.94;;;10.34;nan
75717;BME280;64333;50.138;14.332;2024-02-04T02:38:46;98477.03;;;10.19;nan
75717;BME280;64333;50.138;14.332;2024-02-04T02:41:16;98474.31;;;10.23;nan
75717;BME280;64333;50.138;14.332;2024-02-04T02:43:43;98465.41;;;10.30;nan
75717;BME280;64333;50.138;14.332;2024-02-04T02:46:09;98458.06;;;10.20;nan
75717;BME280;64333;50.138;14.332;2024-02-04T02:48:35;98466.94;;;10.34;nan
75717;BME280;64333;50.138;14.332;2024-02-04T02:51:00;98465.09;;;10.38;nan
75717;BME280;64333;50.138;14.332;2024-02-04T02:53:25;98477.66;;;10.25;nan
75717;BME280;64333;50.138;14.332;2024-02-04T02:55:51;98477.75;;;10.22;nan
75717;BME280;64333;50.138;14.332;2024-02-04T02:58:16;98476.09;;;10.21;nan
75717;BME280;64333;50.138;14.332;2024-02-04T03:00:43;98478.13;;;10.35;nan
75717;BME280;64333;50.138;14.332;2024-02-04T03:03:08;98467.44;;;10.22;nan
75717;BME280;64333;50.138;14.332;2024-02-04T03:05:33;98466.72;;;10.19;nan
75717;BME280;64333;50.138;14.332;2024-02-04T03:07:59;98464.81;;;10.24;nan
75717;BME280;64333;50.138;14.332;2024-02-04T03:10:24;98464.38;;;10.13;nan
75717;BME280;64333;50.138;14.332;2024-02-04T03:12:49;98460.84;;;10.15;nan
75717;BME280;64333;50.138;14.332;2024-02-04T03:15:15;98456.53;;;9.93;nan
75717;BME280;64333;50.138;14.332;2024-02-04T03:17:42;98467.41;;;10.01;nan
75717;BME280;64333;50.138;14.332;2024-02-04T03:20:08;98476.16;;;9.97;nan
75717;BME280;64333;50.138;14.332;2024-02-04T03:22:33;98474.06;;;10.08;nan
75717;BME280;64333;50.138;14.332;2024-02-04T03:24:59;98462.25;;;10.01;nan
75717;BME280;64333;50.138;14.332;2024-02-04T03:27:24;98466.19;;;10.11;nan
75717;BME280;64333;50.138;14.332;2024-02-04T03:29:49;98466.22;;;9.88;nan
75717;BME280;64333;50.138;14.332;2024-02-04T03:32:15;98470.09;;;9.98;nan
75717;BME280;64333;50.138;14.332;2024-02-04T03:34:43;98473.72;;;9.94;nan
75717;BME280;64333;50.138;14.332;2024-02-04T03:37:09;98481.06;;;9.81;nan
75717;BME280;64333;50.138;14.332;2024-02-04T03:39:34;98476.53;;;9.88;nan
75717;BME280;64333;50.138;14.332;2024-02-04T03:42:00;98476.97;;;9.76;nan
75717;BME280;64333;50.138;14.332;2024-02-04T03:44:25;98484.69;;;9.99;nan
75717;BME280;64333;50.138;14.332;2024-02-04T03:46:50;98471.00;;;9.97;nan
75717;BME280;64333;50.138;14.332;2024-02-04T03:49:18;98476.09;;;10.21;nan
75717;BME280;64333;50.138;14.332;2024-02-04T03:51:43;98488.06;;;10.01;nan
75717;BME280;64333;50.138;14.332;2024-02-04T03:54:09;98490.97;;;9.92;nan
75717;BME280;64333;50.138;14.332;2024-02-04T03:56:34;98486.09;;;10.07;nan
75717;BME280;64333;50.138;14.332;2024-02-04T03:58:59;98487.75;;;10.31;nan
75717;BME280;64333;50.138;14.332;2024-02-04T04:01:25;98492.41;;;10.22;nan
75717;BME280;64333;50.138;14.332;2024-02-04T04:03:50;98493.63;;;10.35;nan
75717;BME280;64333;50.138;14.332;2024-02-04T04:06:16;98510.53;;;10.20;nan
75717;BME280;64333;50.138;14.332;2024-02-04T04:08:41;98489.00;;;10.43;nan
75717;BME280;64333;50.138;14.332;2024-02-04T04:11:08;98502.63;;;10.25;nan
75717;BME280;64333;50.138;14.332;2024-02-04T04:13:34;98491.50;;;10.23;nan
75717;BME280;64333;50.138;14.332;2024-02-04T04:16:00;98483.56;;;10.90;nan
75717;BME280;64333;50.138;14.332;2024-02-04T04:18:26;98474.91;;;10.71;nan
75717;BME280;64333;50.138;14.332;2024-02-04T04:20:51;98475.69;;;10.52;nan
75717;BME280;64333;50.138;14.332;2024-02-04T04:23:16;98475.84;;;10.49;nan
75717;BME280;64333;50.138;14.332;2024-02-04T04:25:42;98463.06;;;10.66;nan
75717;BME280;64333;50.138;14.332;2024-02-04T04:28:07;98457.78;;;10.69;nan
75717;BME280;64333;50.138;14.332;2024-02-04T04:30:32;98463.19;;;10.63;nan
75717;BME280;64333;50.138;14.332;2024-02-04T04:32:58;98468.03;;;10.29;nan
75717;BME280;64333;50.138;14.332;2024-02-04T04:35:24;98462.69;;;10.33;nan
75717;BME280;64333;50.138;14.332;2024-02-04T04:37:49;98454.00;;;10.14;nan
75717;BME280;64333;50.138;14.332;2024-02-04T04:40:15;98460.84;;;10.15;nan
75717;BME280;64333;50.138;14.332;2024-02-04T04:42:40;98447.34;;;10.09;nan
75717;BME280;64333;50.138;14.332;2024-02-04T04:45:06;98450.16;;;10.24;nan
75717;BME280;64333;50.138;14.332;2024-02-04T04:47:33;98441.41;;;10.07;nan
75717;BME280;64333;50.138;14.332;2024-02-04T04:49:58;98443.66;;;10.36;nan
75717;BME280;64333;50.138;14.332;2024-02-04T04:52:24;98436.13;;;10.10;nan
75717;BME280;64333;50.138;14.332;2024-02-04T04:54:49;98421.44;;;9.89;nan
75717;BME280;64333;50.138;14.332;2024-02-04T04:57:14;98432.16;;;10.23;nan
75717;BME280;64333;50.138;14.332;2024-02-04T04:59:40;98412.53;;;10.39;nan
75717;BME280;64333;50.138;14.332;2024-02-04T05:02:05;98421.59;;;10.07;nan
75717;BME280;64333;50.138;14.332;2024-02-04T05:04:31;98414.03;;;10.24;nan
75717;BME280;64333;50.138;14.332;2024-02-04T05:06:56;98417.59;;;9.99;nan
75717;BME280;64333;50.138;14.332;2024-02-04T05:09:22;98434.88;;;9.97;nan
75717;BME280;64333;50.138;14.332;2024-02-04T05:11:47;98443.00;;;10.09;nan
75717;BME280;64333;50.138;14.332;2024-02-04T05:14:13;98429.28;;;10.09;nan
75717;BME280;64333;50.138;14.332;2024-02-04T05:16:38;98439.88;;;10.23;nan
75717;BME280;64333;50.138;14.332;2024-02-04T05:19:03;98440.66;;;10.25;nan
75717;BME280;64333;50.138;14.332;2024-02-04T05:21:29;98442.94;;;10.11;nan
75717;BME280;64333;50.138;14.332;2024-02-04T05:23:54;98433.44;;;10.33;nan
75717;BME280;64333;50.138;14.332;2024-02-04T05:26:20;98442.00;;;10.55;nan
75717;BME280;64333;50.138;14.332;2024-02-04T05:28:45;98450.25;;;10.43;nan
75717;BME280;64333;50.138;14.332;2024-02-04T05:31:11;98448.16;;;10.52;nan
75717;BME280;64333;50.138;14.332;2024-02-04T05:33:36;98440.50;;;10.49;nan
75717;BME280;64333;50.138;14.332;2024-02-04T05:36:02;98438.53;;;10.76;nan
75717;BME280;64333;50.138;14.332;2024-02-04T05:38:28;98420.31;;;10.78;nan
75717;BME280;64333;50.138;14.332;2024-02-04T05:40:53;98421.28;;;10.56;nan
75717;BME280;64333;50.138;14.332;2024-02-04T05:43:19;98427.69;;;10.26;nan
75717;BME280;64333;50.138;14.332;2024-02-04T05:45:44;98419.41;;;10.60;nan
75717;BME280;64333;50.138;14.332;2024-02-04T05:48:10;98434.47;;;10.70;nan
75717;BME280;64333;50.138;14.332;2024-02-04T05:50:36;98417.88;;;10.76;nan
75717;BME280;64333;50.138;14.332;2024-02-04T05:53:02;98409.81;;;10.83;nan
75717;BME280;64333;50.138;14.332;2024-02-04T05:55:28;98400.44;;;10.81;nan
75717;BME280;64333;50.138;14.332;2024-02-04T05:57:54;98405.50;;;10.82;nan
75717;BME280;64333;50.138;14.332;2024-02-04T06:00:20;98414.69;;;10.69;nan
75717;BME280;64333;50.138;14.332;2024-02-04T06:02:45;98407.13;;;10.84;nan
75717;BME280;64333;50.138;14.332;2024-02-04T06:05:14;98402.63;;;10.89;nan
75717;BME280;64333;50.138;14.332;2024-02-04T06:07:39;98406.78;;;10.54;nan
75717;BME280;64333;50.138;14.332;2024-02-04T06:10:09;98403.13;;;10.77;nan
75717;BME280;64333;50.138;14.332;2024-02-04T06:12:34;98403.38;;;10.52;nan
75717;BME280;64333;50.138;14.332;2024-02-04T06:14:59;98410.88;;;10.77;nan
75717;BME280;64333;50.138;14.332;2024-02-04T06:17:25;98393.38;;;10.84;nan
75717;BME280;64333;50.138;14.332;2024-02-04T06:19:50;98395.97;;;10.84;nan
75717;BME280;64333;50.138;14.332;2024-02-04T06:22:16;98403.59;;;10.87;nan
75717;BME280;64333;50.138;14.332;2024-02-04T06:24:41;98387.38;;;10.83;nan
75717;BME280;64333;50.138;14.332;2024-02-04T06:27:07;98398.81;;;10.58;nan
75717;BME280;64333;50.138;14.332;2024-02-04T06:29:33;98405.22;;;10.70;nan
75717;BME280;64333;50.138;14.332;2024-02-04T06:31:59;98400.00;;;10.71;nan
75717;BME280;64333;50.138;14.332;2024-02-04T06:34:24;98401.84;;;10.88;nan
75717;BME280;64333;50.138;14.332;2024-02-04T06:36:50;98397.75;;;10.82;nan
75717;BME280;64333;50.138;14.332;2024-02-04T06:39:15;98403.03;;;10.81;nan
75717;BME280;64333;50.138;14.332;2024-02-04T06:41:41;98401.78;;;10.69;nan
75717;BME280;64333;50.138;14.332;2024-02-04T06:44:06;98396.09;;;10.81;nan
75717;BME280;64333;50.138;14.332;2024-02-04T06:46:31;98393.31;;;10.66;nan
75717;BME280;64333;50.138;14.332;2024-02-04T06:48:57;98385.44;;;10.69;nan
75717;BME280;64333;50.138;14.332;2024-02-04T06:51:22;98394.72;;;10.92;nan
75717;BME280;64333;50.138;14.332;2024-02-04T06:53:48;98391.50;;;10.88;nan
75717;BME280;64333;50.138;14.332;2024-02-04T06:56:14;98394.19;;;11.04;nan
75717;BME280;64333;50.138;14.332;2024-02-04T06:58:43;98394.41;;;11.00;nan
75717;BME280;64333;50.138;14.332;2024-02-04T07:01:09;98387.56;;;10.99;nan
75717;BME280;64333;50.138;14.332;2024-02-04T07:03:35;98379.53;;;11.05;nan
75717;BME280;64333;50.138;14.332;2024-02-04T07:06:00;98382.59;;;11.13;nan
75717;BME280;64333;50.138;14.332;2024-02-04T07:08:26;98389.41;;;10.77;nan
75717;BME280;64333;50.138;14.332;2024-02-04T07:10:52;98378.69;;;11.04;nan
75717;BME280;64333;50.138;14.332;2024-02-04T07:13:17;98402.44;;;11.12;nan
75717;BME280;64333;50.138;14.332;2024-02-04T07:15:43;98380.59;;;11.19;nan
75717;BME280;64333;50.138;14.332;2024-02-04T07:18:09;98394.59;;;10.95;nan
75717;BME280;64333;50.138;14.332;2024-02-04T07:20:34;98388.75;;;11.10;nan
75717;BME280;64333;50.138;14.332;2024-02-04T07:23:00;98368.72;;;11.34;nan
75717;BME280;64333;50.138;14.332;2024-02-04T07:25:25;98372.06;;;11.17;nan
75717;BME280;64333;50.138;14.332;2024-02-04T07:27:50;98390.16;;;11.17;nan
75717;BME280;64333;50.138;14.332;2024-02-04T07:30:16;98390.53;;;11.28;nan
75717;BME280;64333;50.138;14.332;2024-02-04T07:32:42;98410.44;;;11.26;nan
75717;BME280;64333;50.138;14.332;2024-02-04T07:35:07;98401.34;;;11.36;nan
75717;BME280;64333;50.138;14.332;2024-02-04T07:37:34;98391.44;;;11.46;nan
75717;BME280;64333;50.138;14.332;2024-02-04T07:40:00;98400.72;;;11.31;nan
75717;BME280;64333;50.138;14.332;2024-02-04T07:42:26;98403.66;;;11.24;nan
75717;BME280;64333;50.138;14.332;2024-02-04T07:44:53;98387.94;;;11.47;nan
75717;BME280;64333;50.138;14.332;2024-02-04T07:47:18;98406.97;;;11.64;nan
75717;BME280;64333;50.138;14.332;2024-02-04T07:49:47;98382.00;;;11.82;nan
75717;BME280;64333;50.138;14.332;2024-02-04T07:52:12;98390.03;;;11.57;nan
75717;BME280;64333;50.138;14.332;2024-02-04T07:54:37;98385.78;;;11.93;nan
75717;BME280;64333;50.138;14.332;2024-02-04T07:57:03;98384.34;;;12.22;nan
75717;BME280;64333;50.138;14.332;2024-02-04T07:59:28;98371.88;;;11.77;nan
75717;BME280;64333;50.138;14.332;2024-02-04T08:01:54;98376.63;;;11.68;nan
75717;BME280;64333;50.138;14.332;2024-02-04T08:04:19;98392.63;;;12.11;nan
75717;BME280;64333;50.138;14.332;2024-02-04T08:06:44;98378.19;;;12.58;nan
75717;BME280;64333;50.138;14.332;2024-02-04T08:09:10;98369.88;;;13.18;nan
75717;BME280;64333;50.138;14.332;2024-02-04T08:11:35;98373.41;;;12.34;nan
75717;BME280;64333;50.138;14.332;2024-02-04T08:14:00;98375.44;;;12.10;nan
75717;BME280;64333;50.138;14.332;2024-02-04T08:16:26;98379.97;;;11.88;nan
75717;BME280;64333;50.138;14.332;2024-02-04T08:18:51;98389.84;;;12.16;nan
75717;BME280;64333;50.138;14.332;2024-02-04T08:21:17;98392.09;;;12.05;nan
75717;BME280;64333;50.138;14.332;2024-02-04T08:23:42;98382.09;;;12.16;nan
75717;BME280;64333;50.138;14.332;2024-02-04T08:26:09;98397.19;;;11.71;nan
75717;BME280;64333;50.138;14.332;2024-02-04T08:28:35;98373.13;;;11.87;nan
75717;BME280;64333;50.138;14.332;2024-02-04T08:31:00;98382.44;;;12.25;nan
75717;BME280;64333;50.138;14.332;2024-02-04T08:33:26;98398.38;;;11.82;nan
75717;BME280;64333;50.138;14.332;2024-02-04T08:35:51;98379.41;;;12.00;nan
75717;BME280;64333;50.138;14.332;2024-02-04T08:38:16;98385.84;;;11.92;nan
75717;BME280;64333;50.138;14.332;2024-02-04T08:40:42;98376.28;;;12.11;nan
75717;BME280;64333;50.138;14.332;2024-02-04T08:43:07;98364.78;;;11.99;nan
75717;BME280;64333;50.138;14.332;2024-02-04T08:45:32;98381.47;;;11.92;nan
75717;BME280;64333;50.138;14.332;2024-02-04T08:47:58;98369.06;;;11.82;nan
75717;BME280;64333;50.138;14.332;2024-02-04T08:50:23;98385.38;;;12.01;nan
75717;BME280;64333;50.138;14.332;2024-02-04T08:52:48;98379.41;;;11.82;nan
75717;BME280;64333;50.138;14.332;2024-02-04T08:55:14;98375.25;;;11.96;nan
75717;BME280;64333;50.138;14.332;2024-02-04T08:57:40;98384.84;;;11.94;nan
75717;BME280;64333;50.138;14.332;2024-02-04T09:00:06;98384.69;;;12.16;nan
75717;BME280;64333;50.138;14.332;2024-02-04T09:02:36;98387.66;;;12.42;nan
75717;BME280;64333;50.138;14.332;2024-02-04T09:05:02;98371.38;;;12.90;nan
75717;BME280;64333;50.138;14.332;2024-02-04T09:07:27;98373.81;;;12.93;nan
75717;BME280;64333;50.138;14.332;2024-02-04T09:09:53;98379.72;;;12.62;nan
75717;BME280;64333;50.138;14.332;2024-02-04T09:12:18;98374.81;;;12.90;nan
75717;BME280;64333;50.138;14.332;2024-02-04T09:14:43;98395.44;;;12.59;nan
75717;BME280;64333;50.138;14.332;2024-02-04T09:17:09;98381.63;;;12.59;nan
75717;BME280;64333;50.138;14.332;2024-02-04T09:19:35;98392.38;;;12.51;nan
75717;BME280;64333;50.138;14.332;2024-02-04T09:22:01;98391.00;;;12.27;nan
75717;BME280;64333;50.138;14.332;2024-02-04T09:24:27;98385.97;;;12.41;nan
75717;BME280;64333;50.138;14.332;2024-02-04T09:26:52;98383.94;;;11.95;nan
75717;BME280;64333;50.138;14.332;2024-02-04T09:29:18;98376.97;;;12.14;nan
75717;BME280;64333;50.138;14.332;2024-02-04T09:31:43;98375.31;;;12.13;nan
75717;BME280;64333;50.138;14.332;2024-02-04T09:34:09;98387.06;;;12.54;nan
75717;BME280;64333;50.138;14.332;2024-02-04T09:36:34;98393.44;;;12.30;nan
75717;BME280;64333;50.138;14.332;2024-02-04T09:39:00;98386.06;;;12.23;nan
75717;BME280;64333;50.138;14.332;2024-02-04T09:41:25;98384.44;;;12.20;nan
75717;BME280;64333;50.138;14.332;2024-02-04T09:43:52;98377.06;;;12.64;nan
75717;BME280;64333;50.138;14.332;2024-02-04T09:46:18;98384.72;;;12.65;nan
75717;BME280;64333;50.138;14.332;2024-02-04T09:48:44;98392.13;;;12.73;nan
75717;BME280;64333;50.138;14.332;2024-02-04T09:51:10;98371.16;;;12.77;nan
75717;BME280;64333;50.138;14.332;2024-02-04T09:53:36;98374.38;;;12.65;nan
75717;BME280;64333;50.138;14.332;2024-02-04T09:56:06;98400.16;;;12.68;nan
75717;BME280;64333;50.138;14.332;2024-02-04T09:58:33;98365.03;;;13.12;nan
75717;BME280;64333;50.138;14.332;2024-02-04T10:01:04;98351.88;;;13.00;nan
75717;BME280;64333;50.138;14.332;2024-02-04T10:03:30;98340.03;;;12.94;nan
75717;BME280;64333;50.138;14.332;2024-02-04T10:05:56;98351.38;;;13.72;nan
75717;BME280;64333;50.138;14.332;2024-02-04T10:08:22;98355.91;;;13.21;nan
75717;BME280;64333;50.138;14.332;2024-02-04T10:10:48;98355.31;;;13.00;nan
75717;BME280;64333;50.138;14.332;2024-02-04T10:13:13;98345.41;;;13.24;nan
75717;BME280;64333;50.138;14.332;2024-02-04T10:15:39;98336.75;;;13.23;nan
75717;BME280;64333;50.138;14.332;2024-02-04T10:18:05;98341.94;;;13.23;nan
75717;BME280;64333;50.138;14.332;2024-02-04T10:20:31;98345.16;;;13.44;nan
75717;BME280;64333;50.138;14.332;2024-02-04T10:22:57;98350.78;;;13.04;nan
75717;BME280;64333;50.138;14.332;2024-02-04T10:25:22;98351.28;;;12.78;nan
75717;BME280;64333;50.138;14.332;2024-02-04T10:27:48;98335.00;;;12.91;nan
75717;BME280;64333;50.138;14.332;2024-02-04T10:30:13;98349.00;;;12.72;nan
75717;BME280;64333;50.138;14.332;2024-02-04T10:32:41;98339.16;;;12.95;nan
75717;BME280;64333;50.138;14.332;2024-02-04T10:35:07;98333.41;;;13.06;nan
75717;BME280;64333;50.138;14.332;2024-02-04T10:37:33;98326.66;;;13.34;nan
75717;BME280;64333;50.138;14.332;2024-02-04T10:39:58;98329.06;;;13.06;nan
75717;BME280;64333;50.138;14.332;2024-02-04T10:42:26;98319.19;;;13.28;nan
75717;BME280;64333;50.138;14.332;2024-02-04T10:44:53;98314.88;;;13.29;nan
75717;BME280;64333;50.138;14.332;2024-02-04T10:47:29;98325.56;;;13.23;nan
75717;BME280;64333;50.138;14.332;2024-02-04T10:49:58;98309.97;;;13.38;nan
75717;BME280;64333;50.138;14.332;2024-02-04T10:52:26;98301.97;;;13.27;nan
75717;BME280;64333;50.138;14.332;2024-02-04T10:54:53;98305.50;;;13.26;nan
75717;BME280;64333;50.138;14.332;2024-02-04T10:57:22;98310.41;;;13.15;nan
75717;BME280;64333;50.138;14.332;2024-02-04T10:59:48;98297.75;;;13.09;nan
75717;BME280;64333;50.138;14.332;2024-02-04T11:02:15;98308.81;;;13.28;nan
75717;BME280;64333;50.138;14.332;2024-02-04T11:04:42;98321.47;;;13.34;nan
75717;BME280;64333;50.138;14.332;2024-02-04T11:07:11;98309.78;;;12.95;nan
75717;BME280;64333;50.138;14.332;2024-02-04T11:09:39;98304.63;;;13.10;nan
75717;BME280;64333;50.138;14.332;2024-02-04T11:12:09;98296.44;;;12.85;nan
75717;BME280;64333;50.138;14.332;2024-02-04T11:14:40;98295.06;;;12.95;nan
75717;BME280;64333;50.138;14.332;2024-02-04T11:28:29;98278.13;;;12.88;nan
75717;BME280;64333;50.138;14.332;2024-02-04T11:30:55;98259.94;;;13.36;nan
75717;BME280;64333;50.138;14.332;2024-02-04T11:33:22;98262.84;;;14.06;nan
75717;BME280;64333;50.138;14.332;2024-02-04T11:36:04;98241.66;;;13.69;nan
75717;BME280;64333;50.138;14.332;2024-02-04T11:38:36;98237.50;;;13.66;nan
75717;BME280;64333;50.138;14.332;2024-02-04T11:41:03;98246.97;;;13.52;nan
75717;BME280;64333;50.138;14.332;2024-02-04T11:43:32;98255.19;;;13.74;nan
75717;BME280;64333;50.138;14.332;2024-02-04T11:45:58;98260.94;;;13.18;nan
75717;BME280;64333;50.138;14.332;2024-02-04T11:48:33;98257.59;;;13.47;nan
75717;BME280;64333;50.138;14.332;2024-02-04T11:50:59;98267.66;;;13.22;nan
75717;BME280;64333;50.138;14.332;2024-02-04T11:53:28;98250.00;;;13.29;nan
75717;BME280;64333;50.138;14.332;2024-02-04T11:55:57;98246.81;;;13.08;nan
75717;BME280;64333;50.138;14.332;2024-02-04T11:58:26;98238.84;;;12.80;nan
75717;BME280;64333;50.138;14.332;2024-02-04T12:00:52;98251.19;;;12.75;nan
75717;BME280;64333;50.138;14.332;2024-02-04T12:03:31;98235.94;;;13.02;nan
75717;BME280;64333;50.138;14.332;2024-02-04T12:05:58;98231.66;;;13.01;nan
75717;BME280;64333;50.138;14.332;2024-02-04T12:08:24;98247.34;;;12.99;nan
75717;BME280;64333;50.138;14.332;2024-02-04T12:10:50;98240.31;;;12.84;nan
75717;BME280;64333;50.138;14.332;2024-02-04T12:13:18;98229.00;;;13.33;nan
75717;BME280;64333;50.138;14.332;2024-02-04T12:15:45;98218.97;;;13.27;nan
75717;BME280;64333;50.138;14.332;2024-02-04T12:18:11;98222.56;;;13.25;nan
75717;BME280;64333;50.138;14.332;2024-02-04T12:20:38;98235.69;;;13.37;nan
75717;BME280;64333;50.138;14.332;2024-02-04T12:23:04;98228.31;;;13.45;nan
75717;BME280;64333;50.138;14.332;2024-02-04T12:25:30;98233.34;;;13.33;nan
75717;BME280;64333;50.138;14.332;2024-02-04T12:27:59;98199.53;;;13.34;nan
75717;BME280;64333;50.138;14.332;2024-02-04T12:30:26;98180.53;;;13.63;nan
75717;BME280;64333;50.138;14.332;2024-02-04T12:35:22;98194.34;;;13.34;nan
75717;BME280;64333;50.138;14.332;2024-02-04T12:37:55;98197.16;;;13.16;nan
75717;BME280;64333;50.138;14.332;2024-02-04T12:43:00;98194.38;;;13.03;nan
75717;BME280;64333;50.138;14.332;2024-02-04T12:45:29;98205.06;;;13.28;nan
75717;BME280;64333;50.138;14.332;2024-02-04T12:47:58;98199.06;;;13.12;nan
75717;BME280;64333;50.138;14.332;2024-02-04T12:50:24;98185.94;;;13.00;nan
75717;BME280;64333;50.138;14.332;2024-02-04T12:53:10;98179.00;;;13.00;nan
75717;BME280;64333;50.138;14.332;2024-02-04T12:55:40;98171.78;;;13.05;nan
75717;BME280;64333;50.138;14.332;2024-02-04T12:58:12;98177.47;;;13.27;nan
75717;BME280;64333;50.138;14.332;2024-02-04T13:00:40;98180.00;;;13.13;nan
75717;BME280;64333;50.138;14.332;2024-02-04T13:03:07;98171.94;;;13.33;nan
75717;BME280;64333;50.138;14.332;2024-02-04T13:05:34;98176.13;;;12.89;nan
75717;BME280;64333;50.138;14.332;2024-02-04T13:08:02;98169.78;;;12.95;nan
75717;BME280;64333;50.138;14.332;2024-02-04T13:10:35;98173.44;;;12.75;nan
75717;BME280;64333;50.138;14.332;2024-02-04T13:13:01;98170.97;;;13.05;nan
75717;BME280;64333;50.138;14.332;2024-02-04T13:15:28;98157.03;;;12.75;nan
75717;BME280;64333;50.138;14.332;2024-02-04T13:17:54;98169.97;;;13.07;nan
75717;BME280;64333;50.138;14.332;2024-02-04T13:20:20;98160.91;;;13.14;nan
75717;BME280;64333;50.138;14.332;2024-02-04T13:22:45;98157.31;;;13.01;nan
75717;BME280;64333;50.138;14.332;2024-02-04T13:25:11;98147.34;;;13.25;nan
75717;BME280;64333;50.138;14.332;2024-02-04T13:27:36;98164.91;;;13.04;nan
75717;BME280;64333;50.138;14.332;2024-02-04T13:30:02;98165.09;;;13.01;nan